sensor_id;sensor_type;location;lat;lon;timestamp;P1;durP1;ratioP1;P2;durP2;ratioP2
22240;SDS011;11289;52.524;13.694;2024-03-29T00:00:46;1.20;;;0.90;;
22240;SDS011;11289;52.524;13.694;2024-03-29T00:03:12;1.95;;;0.82;;
22240;SDS011;11289;52.524;13.694;2024-03-29T00:05:38;2.75;;;0.70;;
22240;SDS011;11289;52.524;13.694;2024-03-29T00:08:04;1.42;;;0.70;;
22240;SDS011;11289;52.524;13.694;2024-03-29T00:10:30;1.35;;;0.80;;
22240;SDS011;11289;52.524;13.694;2024-03-29T00:12:56;1.95;;;0.70;;
22240;SDS011;11289;52.524;13.694;2024-03-29T00:15:23;2.97;;;0.90;;
22240;SDS011;11289;52.524;13.694;2024-03-29T00:17:49;1.02;;;0.70;;
22240;SDS011;11289;52.524;13.694;2024-03-29T00:20:15;1.70;;;0.60;;
22240;SDS011;11289;52.524;13.694;2024-03-29T00:22:40;0.90;;;0.70;;
22240;SDS011;11289;52.524;13.694;2024-03-29T00:25:06;3.30;;;1.00;;
22240;SDS011;11289;52.524;13.694;2024-03-29T00:27:33;2.28;;;0.80;;
22240;SDS011;11289;52.524;13.694;2024-03-29T00:29:59;1.38;;;0.75;;
22240;SDS011;11289;52.524;13.694;2024-03-29T00:32:25;1.83;;;1.05;;
22240;SDS011;11289;52.524;13.694;2024-03-29T00:34:52;2.67;;;1.10;;
22240;SDS011;11289;52.524;13.694;2024-03-29T00:37:19;1.98;;;0.68;;
22240;SDS011;11289;52.524;13.694;2024-03-29T00:39:45;3.13;;;0.80;;
22240;SDS011;11289;52.524;13.694;2024-03-29T00:42:11;2.85;;;1.08;;
22240;SDS011;11289;52.524;13.694;2024-03-29T00:44:41;3.13;;;1.00;;
22240;SDS011;11289;52.524;13.694;2024-03-29T00:47:07;2.58;;;1.02;;
22240;SDS011;11289;52.524;13.694;2024-03-29T00:49:33;1.77;;;0.90;;
22240;SDS011;11289;52.524;13.694;2024-03-29T00:51:59;3.55;;;1.10;;
22240;SDS011;11289;52.524;13.694;2024-03-29T00:54:26;4.65;;;1.30;;
22240;SDS011;11289;52.524;13.694;2024-03-29T00:56:52;2.03;;;1.10;;
22240;SDS011;11289;52.524;13.694;2024-03-29T00:59:18;4.28;;;0.90;;
22240;SDS011;11289;52.524;13.694;2024-03-29T01:01:44;4.28;;;0.60;;
22240;SDS011;11289;52.524;13.694;2024-03-29T01:04:10;0.60;;;0.60;;
22240;SDS011;11289;52.524;13.694;2024-03-29T01:06:37;2.80;;;0.63;;
22240;SDS011;11289;52.524;13.694;2024-03-29T01:09:03;0.70;;;0.70;;
22240;SDS011;11289;52.524;13.694;2024-03-29T01:11:30;2.20;;;0.80;;
22240;SDS011;11289;52.524;13.694;2024-03-29T01:13:56;1.10;;;0.65;;
22240;SDS011;11289;52.524;13.694;2024-03-29T01:16:22;2.00;;;0.73;;
22240;SDS011;11289;52.524;13.694;2024-03-29T01:18:49;1.23;;;0.63;;
22240;SDS011;11289;52.524;13.694;2024-03-29T01:21:15;1.48;;;0.70;;
22240;SDS011;11289;52.524;13.694;2024-03-29T01:23:41;1.58;;;0.70;;
22240;SDS011;11289;52.524;13.694;2024-03-29T01:26:07;2.40;;;0.77;;
22240;SDS011;11289;52.524;13.694;2024-03-29T01:28:51;1.38;;;0.70;;
22240;SDS011;11289;52.524;13.694;2024-03-29T01:31:17;3.45;;;0.60;;
22240;SDS011;11289;52.524;13.694;2024-03-29T01:33:43;3.85;;;0.90;;
22240;SDS011;11289;52.524;13.694;2024-03-29T01:36:09;1.58;;;0.75;;
22240;SDS011;11289;52.524;13.694;2024-03-29T01:38:35;2.15;;;1.00;;
22240;SDS011;11289;52.524;13.694;2024-03-29T01:41:01;0.65;;;0.60;;
22240;SDS011;11289;52.524;13.694;2024-03-29T01:43:28;1.33;;;0.70;;
22240;SDS011;11289;52.524;13.694;2024-03-29T01:45:54;0.70;;;0.70;;
22240;SDS011;11289;52.524;13.694;2024-03-29T01:48:24;2.40;;;0.80;;
22240;SDS011;11289;52.524;13.694;2024-03-29T01:50:56;1.35;;;0.77;;
22240;SDS011;11289;52.524;13.694;2024-03-29T01:53:23;2.05;;;0.73;;
22240;SDS011;11289;52.524;13.694;2024-03-29T01:55:50;1.88;;;0.80;;
22240;SDS011;11289;52.524;13.694;2024-03-29T01:58:17;1.13;;;0.95;;
22240;SDS011;11289;52.524;13.694;2024-03-29T02:00:48;2.97;;;1.10;;
22240;SDS011;11289;52.524;13.694;2024-03-29T02:03:17;2.83;;;1.08;;
22240;SDS011;11289;52.524;13.694;2024-03-29T02:05:43;1.30;;;1.00;;
22240;SDS011;11289;52.524;13.694;2024-03-29T02:08:10;3.90;;;1.15;;
22240;SDS011;11289;52.524;13.694;2024-03-29T02:10:36;2.22;;;1.10;;
22240;SDS011;11289;52.524;13.694;2024-03-29T02:13:03;2.85;;;1.20;;
22240;SDS011;11289;52.524;13.694;2024-03-29T02:15:32;1.80;;;1.42;;
22240;SDS011;11289;52.524;13.694;2024-03-29T02:17:58;1.55;;;1.15;;
22240;SDS011;11289;52.524;13.694;2024-03-29T02:20:24;1.58;;;1.20;;
22240;SDS011;11289;52.524;13.694;2024-03-29T02:22:55;1.42;;;1.25;;
22240;SDS011;11289;52.524;13.694;2024-03-29T02:25:25;2.45;;;1.70;;
22240;SDS011;11289;52.524;13.694;2024-03-29T02:27:51;1.58;;;1.23;;
22240;SDS011;11289;52.524;13.694;2024-03-29T02:30:17;3.78;;;1.23;;
22240;SDS011;11289;52.524;13.694;2024-03-29T02:32:43;1.63;;;1.10;;
22240;SDS011;11289;52.524;13.694;2024-03-29T02:35:09;2.97;;;1.25;;
22240;SDS011;11289;52.524;13.694;2024-03-29T02:37:35;3.15;;;1.50;;
22240;SDS011;11289;52.524;13.694;2024-03-29T02:40:02;3.67;;;1.48;;
22240;SDS011;11289;52.524;13.694;2024-03-29T02:42:29;2.33;;;1.25;;
22240;SDS011;11289;52.524;13.694;2024-03-29T02:44:55;2.45;;;1.45;;
22240;SDS011;11289;52.524;13.694;2024-03-29T02:47:23;2.20;;;1.27;;
22240;SDS011;11289;52.524;13.694;2024-03-29T02:49:49;2.22;;;1.48;;
22240;SDS011;11289;52.524;13.694;2024-03-29T02:52:15;2.40;;;1.63;;
22240;SDS011;11289;52.524;13.694;2024-03-29T02:54:44;4.32;;;1.67;;
22240;SDS011;11289;52.524;13.694;2024-03-29T02:57:10;1.88;;;1.48;;
22240;SDS011;11289;52.524;13.694;2024-03-29T02:59:36;3.13;;;1.50;;
22240;SDS011;11289;52.524;13.694;2024-03-29T03:02:04;2.45;;;1.77;;
22240;SDS011;11289;52.524;13.694;2024-03-29T03:04:30;3.80;;;1.60;;
22240;SDS011;11289;52.524;13.694;2024-03-29T03:06:56;3.45;;;1.52;;
22240;SDS011;11289;52.524;13.694;2024-03-29T03:09:41;2.90;;;1.63;;
22240;SDS011;11289;52.524;13.694;2024-03-29T03:12:26;3.30;;;1.40;;
22240;SDS011;11289;52.524;13.694;2024-03-29T03:14:52;1.75;;;1.40;;
22240;SDS011;11289;52.524;13.694;2024-03-29T03:17:18;3.10;;;2.17;;
22240;SDS011;11289;52.524;13.694;2024-03-29T03:19:44;3.72;;;1.70;;
22240;SDS011;11289;52.524;13.694;2024-03-29T03:22:10;1.95;;;1.55;;
22240;SDS011;11289;52.524;13.694;2024-03-29T03:24:36;3.53;;;1.63;;
22240;SDS011;11289;52.524;13.694;2024-03-29T03:27:02;2.83;;;1.73;;
22240;SDS011;11289;52.524;13.694;2024-03-29T03:29:29;2.65;;;1.55;;
22240;SDS011;11289;52.524;13.694;2024-03-29T03:31:54;3.55;;;1.80;;
22240;SDS011;11289;52.524;13.694;2024-03-29T03:34:20;2.63;;;1.88;;
22240;SDS011;11289;52.524;13.694;2024-03-29T03:36:46;3.55;;;1.77;;
22240;SDS011;11289;52.524;13.694;2024-03-29T03:39:12;3.03;;;1.67;;
22240;SDS011;11289;52.524;13.694;2024-03-29T03:41:38;5.40;;;1.75;;
22240;SDS011;11289;52.524;13.694;2024-03-29T03:44:04;2.05;;;1.45;;
22240;SDS011;11289;52.524;13.694;2024-03-29T03:46:30;3.17;;;1.70;;
22240;SDS011;11289;52.524;13.694;2024-03-29T03:48:56;2.05;;;1.33;;
22240;SDS011;11289;52.524;13.694;2024-03-29T03:51:22;3.67;;;1.60;;
22240;SDS011;11289;52.524;13.694;2024-03-29T03:53:48;2.30;;;1.60;;
22240;SDS011;11289;52.524;13.694;2024-03-29T03:56:14;4.22;;;1.92;;
22240;SDS011;11289;52.524;13.694;2024-03-29T03:58:40;3.85;;;1.73;;
22240;SDS011;11289;52.524;13.694;2024-03-29T04:01:06;4.50;;;2.05;;
22240;SDS011;11289;52.524;13.694;2024-03-29T04:03:32;2.85;;;1.65;;
22240;SDS011;11289;52.524;13.694;2024-03-29T04:05:58;4.25;;;1.80;;
22240;SDS011;11289;52.524;13.694;2024-03-29T04:08:28;3.67;;;1.63;;
22240;SDS011;11289;52.524;13.694;2024-03-29T04:10:54;4.30;;;2.22;;
22240;SDS011;11289;52.524;13.694;2024-03-29T04:13:20;3.05;;;2.15;;
22240;SDS011;11289;52.524;13.694;2024-03-29T04:15:46;3.65;;;2.08;;
22240;SDS011;11289;52.524;13.694;2024-03-29T04:18:12;3.55;;;1.80;;
22240;SDS011;11289;52.524;13.694;2024-03-29T04:20:38;4.68;;;1.65;;
22240;SDS011;11289;52.524;13.694;2024-03-29T04:23:04;3.08;;;1.75;;
22240;SDS011;11289;52.524;13.694;2024-03-29T04:25:31;2.75;;;1.70;;
22240;SDS011;11289;52.524;13.694;2024-03-29T04:27:57;4.00;;;2.13;;
22240;SDS011;11289;52.524;13.694;2024-03-29T04:30:24;3.38;;;1.90;;
22240;SDS011;11289;52.524;13.694;2024-03-29T04:32:50;2.47;;;1.70;;
22240;SDS011;11289;52.524;13.694;2024-03-29T04:35:16;5.72;;;1.77;;
22240;SDS011;11289;52.524;13.694;2024-03-29T04:37:41;3.50;;;1.95;;
22240;SDS011;11289;52.524;13.694;2024-03-29T04:40:07;3.97;;;1.98;;
22240;SDS011;11289;52.524;13.694;2024-03-29T04:42:34;4.68;;;1.90;;
22240;SDS011;11289;52.524;13.694;2024-03-29T04:45:00;4.30;;;2.03;;
22240;SDS011;11289;52.524;13.694;2024-03-29T04:47:26;4.40;;;2.22;;
22240;SDS011;11289;52.524;13.694;2024-03-29T04:49:52;4.20;;;2.75;;
22240;SDS011;11289;52.524;13.694;2024-03-29T04:52:18;5.85;;;3.17;;
22240;SDS011;11289;52.524;13.694;2024-03-29T04:54:44;4.78;;;2.58;;
22240;SDS011;11289;52.524;13.694;2024-03-29T04:57:10;3.55;;;2.42;;
22240;SDS011;11289;52.524;13.694;2024-03-29T04:59:38;4.65;;;2.28;;
22240;SDS011;11289;52.524;13.694;2024-03-29T05:02:06;3.63;;;2.00;;
22240;SDS011;11289;52.524;13.694;2024-03-29T05:04:32;3.33;;;2.03;;
22240;SDS011;11289;52.524;13.694;2024-03-29T05:06:58;3.63;;;1.92;;
22240;SDS011;11289;52.524;13.694;2024-03-29T05:09:24;3.13;;;1.63;;
22240;SDS011;11289;52.524;13.694;2024-03-29T05:11:51;3.50;;;1.63;;
22240;SDS011;11289;52.524;13.694;2024-03-29T05:14:18;4.57;;;1.90;;
22240;SDS011;11289;52.524;13.694;2024-03-29T05:16:46;3.55;;;1.80;;
22240;SDS011;11289;52.524;13.694;2024-03-29T05:19:12;2.58;;;1.80;;
22240;SDS011;11289;52.524;13.694;2024-03-29T05:21:39;8.10;;;1.90;;
22240;SDS011;11289;52.524;13.694;2024-03-29T05:24:05;4.82;;;2.42;;
22240;SDS011;11289;52.524;13.694;2024-03-29T05:26:32;4.32;;;2.70;;
22240;SDS011;11289;52.524;13.694;2024-03-29T05:28:58;6.35;;;3.15;;
22240;SDS011;11289;52.524;13.694;2024-03-29T05:31:25;5.97;;;2.53;;
22240;SDS011;11289;52.524;13.694;2024-03-29T05:33:52;5.25;;;2.15;;
22240;SDS011;11289;52.524;13.694;2024-03-29T05:36:18;7.15;;;3.67;;
22240;SDS011;11289;52.524;13.694;2024-03-29T05:38:44;8.57;;;4.25;;
22240;SDS011;11289;52.524;13.694;2024-03-29T05:41:11;5.85;;;2.05;;
22240;SDS011;11289;52.524;13.694;2024-03-29T05:43:40;5.78;;;2.03;;
22240;SDS011;11289;52.524;13.694;2024-03-29T05:46:06;4.03;;;1.75;;
22240;SDS011;11289;52.524;13.694;2024-03-29T05:48:32;2.10;;;1.40;;
22240;SDS011;11289;52.524;13.694;2024-03-29T05:50:58;3.78;;;1.67;;
22240;SDS011;11289;52.524;13.694;2024-03-29T05:53:24;4.15;;;1.55;;
22240;SDS011;11289;52.524;13.694;2024-03-29T05:55:50;3.60;;;1.63;;
22240;SDS011;11289;52.524;13.694;2024-03-29T05:58:16;3.25;;;1.60;;
22240;SDS011;11289;52.524;13.694;2024-03-29T06:00:46;2.42;;;1.67;;
22240;SDS011;11289;52.524;13.694;2024-03-29T06:03:12;3.42;;;1.85;;
22240;SDS011;11289;52.524;13.694;2024-03-29T06:05:39;4.47;;;1.60;;
22240;SDS011;11289;52.524;13.694;2024-03-29T06:08:07;3.15;;;1.35;;
22240;SDS011;11289;52.524;13.694;2024-03-29T06:10:33;3.72;;;1.33;;
22240;SDS011;11289;52.524;13.694;2024-03-29T06:12:59;4.65;;;1.50;;
22240;SDS011;11289;52.524;13.694;2024-03-29T06:18:16;3.03;;;1.40;;
22240;SDS011;11289;52.524;13.694;2024-03-29T06:20:47;2.50;;;1.38;;
22240;SDS011;11289;52.524;13.694;2024-03-29T06:23:14;1.98;;;1.30;;
22240;SDS011;11289;52.524;13.694;2024-03-29T06:25:40;1.50;;;1.20;;
22240;SDS011;11289;52.524;13.694;2024-03-29T06:28:06;4.57;;;2.00;;
22240;SDS011;11289;52.524;13.694;2024-03-29T06:30:32;4.47;;;1.38;;
22240;SDS011;11289;52.524;13.694;2024-03-29T06:32:58;2.38;;;1.25;;
22240;SDS011;11289;52.524;13.694;2024-03-29T06:35:26;2.67;;;1.13;;
22240;SDS011;11289;52.524;13.694;2024-03-29T06:37:52;2.83;;;1.20;;
22240;SDS011;11289;52.524;13.694;2024-03-29T06:40:18;3.38;;;1.20;;
22240;SDS011;11289;52.524;13.694;2024-03-29T06:42:44;1.25;;;1.00;;
22240;SDS011;11289;52.524;13.694;2024-03-29T06:45:10;1.92;;;1.38;;
22240;SDS011;11289;52.524;13.694;2024-03-29T06:47:36;2.95;;;1.33;;
22240;SDS011;11289;52.524;13.694;2024-03-29T06:50:01;2.65;;;1.30;;
22240;SDS011;11289;52.524;13.694;2024-03-29T06:52:27;4.57;;;1.67;;
22240;SDS011;11289;52.524;13.694;2024-03-29T06:54:54;3.05;;;1.83;;
22240;SDS011;11289;52.524;13.694;2024-03-29T06:57:20;2.30;;;1.48;;
22240;SDS011;11289;52.524;13.694;2024-03-29T06:59:51;4.93;;;1.13;;
22240;SDS011;11289;52.524;13.694;2024-03-29T07:02:17;5.03;;;1.45;;
22240;SDS011;11289;52.524;13.694;2024-03-29T07:04:43;2.25;;;1.25;;
22240;SDS011;11289;52.524;13.694;2024-03-29T07:07:09;4.25;;;1.27;;
22240;SDS011;11289;52.524;13.694;2024-03-29T07:09:35;2.85;;;1.20;;
22240;SDS011;11289;52.524;13.694;2024-03-29T07:12:01;2.90;;;1.10;;
22240;SDS011;11289;52.524;13.694;2024-03-29T07:14:27;1.30;;;1.13;;
22240;SDS011;11289;52.524;13.694;2024-03-29T07:16:53;3.58;;;1.38;;
22240;SDS011;11289;52.524;13.694;2024-03-29T07:19:21;1.88;;;1.02;;
22240;SDS011;11289;52.524;13.694;2024-03-29T07:21:47;1.92;;;1.40;;
22240;SDS011;11289;52.524;13.694;2024-03-29T07:24:14;3.45;;;1.20;;
22240;SDS011;11289;52.524;13.694;2024-03-29T07:26:40;2.60;;;1.27;;
22240;SDS011;11289;52.524;13.694;2024-03-29T07:29:06;3.13;;;1.30;;
22240;SDS011;11289;52.524;13.694;2024-03-29T07:31:32;3.97;;;1.08;;
22240;SDS011;11289;52.524;13.694;2024-03-29T07:33:59;5.03;;;1.20;;
22240;SDS011;11289;52.524;13.694;2024-03-29T07:36:26;2.60;;;1.10;;
22240;SDS011;11289;52.524;13.694;2024-03-29T07:39:00;3.58;;;1.17;;
22240;SDS011;11289;52.524;13.694;2024-03-29T07:41:26;2.00;;;1.00;;
22240;SDS011;11289;52.524;13.694;2024-03-29T07:43:53;3.92;;;1.30;;
22240;SDS011;11289;52.524;13.694;2024-03-29T07:46:43;6.53;;;1.40;;
22240;SDS011;11289;52.524;13.694;2024-03-29T07:49:08;2.92;;;1.20;;
22240;SDS011;11289;52.524;13.694;2024-03-29T07:51:34;2.92;;;1.40;;
22240;SDS011;11289;52.524;13.694;2024-03-29T07:54:00;6.47;;;2.08;;
22240;SDS011;11289;52.524;13.694;2024-03-29T07:56:25;2.83;;;1.17;;
22240;SDS011;11289;52.524;13.694;2024-03-29T07:58:52;2.05;;;1.20;;
22240;SDS011;11289;52.524;13.694;2024-03-29T08:01:22;2.88;;;1.35;;
22240;SDS011;11289;52.524;13.694;2024-03-29T08:03:51;4.65;;;1.20;;
22240;SDS011;11289;52.524;13.694;2024-03-29T08:06:21;4.88;;;1.30;;
22240;SDS011;11289;52.524;13.694;2024-03-29T08:08:49;3.67;;;1.10;;
22240;SDS011;11289;52.524;13.694;2024-03-29T08:11:16;2.65;;;1.10;;
22240;SDS011;11289;52.524;13.694;2024-03-29T08:13:43;2.55;;;0.95;;
22240;SDS011;11289;52.524;13.694;2024-03-29T08:16:09;3.47;;;1.13;;
22240;SDS011;11289;52.524;13.694;2024-03-29T08:18:34;1.83;;;1.00;;
22240;SDS011;11289;52.524;13.694;2024-03-29T08:21:00;2.22;;;1.20;;
22240;SDS011;11289;52.524;13.694;2024-03-29T08:23:27;3.33;;;1.13;;
22240;SDS011;11289;52.524;13.694;2024-03-29T08:25:53;5.30;;;1.40;;
22240;SDS011;11289;52.524;13.694;2024-03-29T08:28:21;3.42;;;1.33;;
22240;SDS011;11289;52.524;13.694;2024-03-29T08:30:57;3.30;;;0.90;;
22240;SDS011;11289;52.524;13.694;2024-03-29T08:33:24;1.33;;;0.90;;
22240;SDS011;11289;52.524;13.694;2024-03-29T08:35:50;2.80;;;1.20;;
22240;SDS011;11289;52.524;13.694;2024-03-29T08:38:16;2.33;;;1.00;;
22240;SDS011;11289;52.524;13.694;2024-03-29T08:40:42;2.65;;;1.10;;
22240;SDS011;11289;52.524;13.694;2024-03-29T08:43:09;1.30;;;0.90;;
22240;SDS011;11289;52.524;13.694;2024-03-29T08:45:35;1.00;;;0.90;;
22240;SDS011;11289;52.524;13.694;2024-03-29T08:48:06;6.93;;;2.72;;
22240;SDS011;11289;52.524;13.694;2024-03-29T08:50:34;3.78;;;1.00;;
22240;SDS011;11289;52.524;13.694;2024-03-29T08:53:03;6.28;;;1.40;;
22240;SDS011;11289;52.524;13.694;2024-03-29T08:55:30;1.80;;;1.08;;
22240;SDS011;11289;52.524;13.694;2024-03-29T08:58:00;2.33;;;1.13;;
22240;SDS011;11289;52.524;13.694;2024-03-29T09:00:27;6.07;;;1.25;;
22240;SDS011;11289;52.524;13.694;2024-03-29T09:02:54;3.55;;;1.05;;
22240;SDS011;11289;52.524;13.694;2024-03-29T09:05:21;2.33;;;1.10;;
22240;SDS011;11289;52.524;13.694;2024-03-29T09:07:48;4.18;;;1.30;;
22240;SDS011;11289;52.524;13.694;2024-03-29T09:10:15;3.35;;;1.27;;
22240;SDS011;11289;52.524;13.694;2024-03-29T09:12:41;2.38;;;1.15;;
22240;SDS011;11289;52.524;13.694;2024-03-29T09:15:07;2.75;;;1.17;;
22240;SDS011;11289;52.524;13.694;2024-03-29T09:17:42;1.23;;;1.00;;
22240;SDS011;11289;52.524;13.694;2024-03-29T09:20:11;2.08;;;1.20;;
22240;SDS011;11289;52.524;13.694;2024-03-29T09:22:38;2.90;;;1.10;;
22240;SDS011;11289;52.524;13.694;2024-03-29T09:25:04;1.90;;;1.08;;
22240;SDS011;11289;52.524;13.694;2024-03-29T09:27:30;4.53;;;1.80;;
22240;SDS011;11289;52.524;13.694;2024-03-29T09:29:59;3.28;;;1.30;;
22240;SDS011;11289;52.524;13.694;2024-03-29T09:32:25;1.27;;;1.10;;
22240;SDS011;11289;52.524;13.694;2024-03-29T09:34:51;3.13;;;1.17;;
22240;SDS011;11289;52.524;13.694;2024-03-29T09:37:17;3.28;;;1.05;;
22240;SDS011;11289;52.524;13.694;2024-03-29T09:39:46;3.60;;;0.80;;
22240;SDS011;11289;52.524;13.694;2024-03-29T09:42:15;4.00;;;1.08;;
22240;SDS011;11289;52.524;13.694;2024-03-29T09:44:43;3.35;;;0.93;;
22240;SDS011;11289;52.524;13.694;2024-03-29T09:47:11;1.10;;;0.98;;
22240;SDS011;11289;52.524;13.694;2024-03-29T09:49:40;2.08;;;0.80;;
22240;SDS011;11289;52.524;13.694;2024-03-29T09:52:10;5.53;;;1.10;;
22240;SDS011;11289;52.524;13.694;2024-03-29T09:54:37;2.35;;;1.05;;
22240;SDS011;11289;52.524;13.694;2024-03-29T09:57:04;3.70;;;1.13;;
22240;SDS011;11289;52.524;13.694;2024-03-29T09:59:30;2.72;;;1.05;;
22240;SDS011;11289;52.524;13.694;2024-03-29T10:01:56;2.75;;;1.00;;
22240;SDS011;11289;52.524;13.694;2024-03-29T10:04:24;2.20;;;1.13;;
22240;SDS011;11289;52.524;13.694;2024-03-29T10:06:50;3.53;;;1.00;;
22240;SDS011;11289;52.524;13.694;2024-03-29T10:09:20;4.22;;;1.73;;
22240;SDS011;11289;52.524;13.694;2024-03-29T10:11:47;4.03;;;1.00;;
22240;SDS011;11289;52.524;13.694;2024-03-29T10:14:13;1.58;;;0.90;;
22240;SDS011;11289;52.524;13.694;2024-03-29T10:16:39;2.00;;;0.85;;
22240;SDS011;11289;52.524;13.694;2024-03-29T10:19:07;2.95;;;1.10;;
22240;SDS011;11289;52.524;13.694;2024-03-29T10:21:33;1.98;;;1.10;;
22240;SDS011;11289;52.524;13.694;2024-03-29T10:24:12;5.88;;;1.33;;
22240;SDS011;11289;52.524;13.694;2024-03-29T10:26:39;2.70;;;0.85;;
22240;SDS011;11289;52.524;13.694;2024-03-29T10:29:06;1.38;;;1.00;;
22240;SDS011;11289;52.524;13.694;2024-03-29T10:31:35;3.50;;;0.93;;
22240;SDS011;11289;52.524;13.694;2024-03-29T10:34:02;2.30;;;0.98;;
22240;SDS011;11289;52.524;13.694;2024-03-29T10:36:31;1.40;;;0.90;;
22240;SDS011;11289;52.524;13.694;2024-03-29T10:39:11;1.40;;;1.10;;
22240;SDS011;11289;52.524;13.694;2024-03-29T10:41:40;4.40;;;1.00;;
22240;SDS011;11289;52.524;13.694;2024-03-29T10:44:10;1.38;;;0.90;;
22240;SDS011;11289;52.524;13.694;2024-03-29T10:46:37;2.33;;;0.90;;
22240;SDS011;11289;52.524;13.694;2024-03-29T10:49:13;1.85;;;1.00;;
22240;SDS011;11289;52.524;13.694;2024-03-29T10:51:42;2.88;;;1.15;;
22240;SDS011;11289;52.524;13.694;2024-03-29T10:54:08;2.00;;;0.95;;
22240;SDS011;11289;52.524;13.694;2024-03-29T10:56:36;1.38;;;1.00;;
22240;SDS011;11289;52.524;13.694;2024-03-29T10:59:12;2.28;;;0.85;;
22240;SDS011;11289;52.524;13.694;2024-03-29T11:01:43;2.15;;;0.98;;
22240;SDS011;11289;52.524;13.694;2024-03-29T11:04:17;1.65;;;0.90;;
22240;SDS011;11289;52.524;13.694;2024-03-29T11:06:48;1.42;;;1.00;;
22240;SDS011;11289;52.524;13.694;2024-03-29T11:09:20;1.15;;;0.65;;
22240;SDS011;11289;52.524;13.694;2024-03-29T11:11:46;2.10;;;1.10;;
22240;SDS011;11289;52.524;13.694;2024-03-29T11:14:26;1.98;;;1.00;;
22240;SDS011;11289;52.524;13.694;2024-03-29T11:17:02;1.15;;;0.80;;
22240;SDS011;11289;52.524;13.694;2024-03-29T11:19:29;1.80;;;0.70;;
22240;SDS011;11289;52.524;13.694;2024-03-29T11:21:55;0.73;;;0.73;;
22240;SDS011;11289;52.524;13.694;2024-03-29T11:24:22;0.93;;;0.75;;
22240;SDS011;11289;52.524;13.694;2024-03-29T11:26:48;1.40;;;0.80;;
22240;SDS011;11289;52.524;13.694;2024-03-29T11:29:18;1.25;;;0.90;;
22240;SDS011;11289;52.524;13.694;2024-03-29T11:31:45;1.17;;;1.02;;
22240;SDS011;11289;52.524;13.694;2024-03-29T11:34:12;0.75;;;0.60;;
22240;SDS011;11289;52.524;13.694;2024-03-29T11:36:38;1.30;;;0.80;;
22240;SDS011;11289;52.524;13.694;2024-03-29T11:39:05;0.60;;;0.60;;
22240;SDS011;11289;52.524;13.694;2024-03-29T11:41:31;2.05;;;0.63;;
22240;SDS011;11289;52.524;13.694;2024-03-29T11:43:57;0.70;;;0.70;;
22240;SDS011;11289;52.524;13.694;2024-03-29T11:46:24;1.85;;;0.90;;
22240;SDS011;11289;52.524;13.694;2024-03-29T11:48:50;1.60;;;0.70;;
22240;SDS011;11289;52.524;13.694;2024-03-29T11:51:20;1.65;;;0.95;;
22240;SDS011;11289;52.524;13.694;2024-03-29T11:53:49;1.65;;;0.60;;
22240;SDS011;11289;52.524;13.694;2024-03-29T11:56:20;1.20;;;0.60;;
22240;SDS011;11289;52.524;13.694;2024-03-29T11:58:47;1.33;;;0.80;;
22240;SDS011;11289;52.524;13.694;2024-03-29T12:01:14;1.02;;;0.75;;
22240;SDS011;11289;52.524;13.694;2024-03-29T12:03:41;0.73;;;0.60;;
22240;SDS011;11289;52.524;13.694;2024-03-29T12:06:08;0.77;;;0.70;;
22240;SDS011;11289;52.524;13.694;2024-03-29T12:08:35;0.70;;;0.55;;
22240;SDS011;11289;52.524;13.694;2024-03-29T12:11:04;1.13;;;0.60;;
22240;SDS011;11289;52.524;13.694;2024-03-29T12:13:30;0.70;;;0.70;;
22240;SDS011;11289;52.524;13.694;2024-03-29T12:15:57;1.95;;;0.63;;
22240;SDS011;11289;52.524;13.694;2024-03-29T12:18:24;3.55;;;0.70;;
22240;SDS011;11289;52.524;13.694;2024-03-29T12:20:51;1.45;;;0.73;;
22240;SDS011;11289;52.524;13.694;2024-03-29T12:23:18;1.83;;;0.90;;
22240;SDS011;11289;52.524;13.694;2024-03-29T12:25:45;1.65;;;0.80;;
22240;SDS011;11289;52.524;13.694;2024-03-29T12:28:12;2.47;;;1.00;;
22240;SDS011;11289;52.524;13.694;2024-03-29T12:30:40;1.35;;;0.80;;
22240;SDS011;11289;52.524;13.694;2024-03-29T12:33:08;1.73;;;0.80;;
22240;SDS011;11289;52.524;13.694;2024-03-29T12:35:37;0.98;;;0.90;;
22240;SDS011;11289;52.524;13.694;2024-03-29T12:38:03;1.80;;;0.85;;
22240;SDS011;11289;52.524;13.694;2024-03-29T12:40:31;1.02;;;0.85;;
22240;SDS011;11289;52.524;13.694;2024-03-29T12:43:04;2.35;;;1.10;;
22240;SDS011;11289;52.524;13.694;2024-03-29T12:45:33;2.22;;;0.90;;
22240;SDS011;11289;52.524;13.694;2024-03-29T12:47:59;2.88;;;1.10;;
22240;SDS011;11289;52.524;13.694;2024-03-29T12:50:26;2.03;;;1.08;;
22240;SDS011;11289;52.524;13.694;2024-03-29T12:52:57;1.35;;;0.73;;
22240;SDS011;11289;52.524;13.694;2024-03-29T12:55:24;1.33;;;0.70;;
22240;SDS011;11289;52.524;13.694;2024-03-29T12:57:53;0.57;;;0.20;;
22240;SDS011;11289;52.524;13.694;2024-03-29T13:00:20;1.75;;;0.40;;
22240;SDS011;11289;52.524;13.694;2024-03-29T13:02:46;1.40;;;0.73;;
22240;SDS011;11289;52.524;13.694;2024-03-29T13:05:12;0.73;;;0.65;;
22240;SDS011;11289;52.524;13.694;2024-03-29T13:07:38;4.03;;;1.00;;
22240;SDS011;11289;52.524;13.694;2024-03-29T13:10:04;1.20;;;0.65;;
22240;SDS011;11289;52.524;13.694;2024-03-29T13:12:41;1.08;;;0.70;;
22240;SDS011;11289;52.524;13.694;2024-03-29T13:17:42;1.02;;;0.70;;
22240;SDS011;11289;52.524;13.694;2024-03-29T13:20:08;1.15;;;0.50;;
22240;SDS011;11289;52.524;13.694;2024-03-29T13:22:35;0.73;;;0.50;;
22240;SDS011;11289;52.524;13.694;2024-03-29T13:25:02;1.77;;;0.70;;
22240;SDS011;11289;52.524;13.694;2024-03-29T13:27:30;2.17;;;0.70;;
22240;SDS011;11289;52.524;13.694;2024-03-29T13:29:57;2.08;;;0.60;;
22240;SDS011;11289;52.524;13.694;2024-03-29T13:32:23;2.15;;;0.70;;
22240;SDS011;11289;52.524;13.694;2024-03-29T13:34:49;0.80;;;0.60;;
22240;SDS011;11289;52.524;13.694;2024-03-29T13:37:15;1.70;;;1.00;;
22240;SDS011;11289;52.524;13.694;2024-03-29T13:39:41;2.83;;;0.80;;
22240;SDS011;11289;52.524;13.694;2024-03-29T13:42:07;1.67;;;1.40;;
22240;SDS011;11289;52.524;13.694;2024-03-29T13:44:33;1.73;;;0.70;;
22240;SDS011;11289;52.524;13.694;2024-03-29T13:46:59;1.35;;;0.80;;
22240;SDS011;11289;52.524;13.694;2024-03-29T13:49:29;1.95;;;0.70;;
22240;SDS011;11289;52.524;13.694;2024-03-29T13:51:56;1.35;;;0.80;;
22240;SDS011;11289;52.524;13.694;2024-03-29T13:54:22;1.45;;;0.80;;
22240;SDS011;11289;52.524;13.694;2024-03-29T13:56:49;1.55;;;0.80;;
22240;SDS011;11289;52.524;13.694;2024-03-29T13:59:15;1.27;;;1.08;;
22240;SDS011;11289;52.524;13.694;2024-03-29T14:01:41;3.72;;;2.13;;
22240;SDS011;11289;52.524;13.694;2024-03-29T14:04:07;1.23;;;0.80;;
22240;SDS011;11289;52.524;13.694;2024-03-29T14:06:33;1.30;;;0.80;;
22240;SDS011;11289;52.524;13.694;2024-03-29T14:08:59;1.75;;;0.85;;
22240;SDS011;11289;52.524;13.694;2024-03-29T14:11:25;0.90;;;0.77;;
22240;SDS011;11289;52.524;13.694;2024-03-29T14:13:51;1.90;;;1.05;;
22240;SDS011;11289;52.524;13.694;2024-03-29T14:16:22;1.23;;;0.90;;
22240;SDS011;11289;52.524;13.694;2024-03-29T14:18:48;0.60;;;0.60;;
22240;SDS011;11289;52.524;13.694;2024-03-29T14:21:14;2.25;;;0.85;;
22240;SDS011;11289;52.524;13.694;2024-03-29T14:23:40;1.58;;;0.90;;
22240;SDS011;11289;52.524;13.694;2024-03-29T14:26:06;2.53;;;0.70;;
22240;SDS011;11289;52.524;13.694;2024-03-29T14:28:32;1.25;;;0.60;;
22240;SDS011;11289;52.524;13.694;2024-03-29T14:30:58;2.35;;;0.70;;
22240;SDS011;11289;52.524;13.694;2024-03-29T14:33:24;1.13;;;0.80;;
22240;SDS011;11289;52.524;13.694;2024-03-29T14:35:50;1.92;;;0.80;;
22240;SDS011;11289;52.524;13.694;2024-03-29T14:38:16;0.93;;;0.70;;